createdAt,value
2019-02-11T00:00:56.631Z,97.50
2019-02-11T00:03:25.498Z,97.55
2019-02-11T00:05:54.229Z,97.43
2019-02-11T00:08:22.946Z,97.44
2019-02-11T00:10:51.762Z,97.21
2019-02-11T00:13:20.492Z,97.18
2019-02-11T00:15:49.224Z,97.25
2019-02-11T00:18:17.974Z,98.96
2019-02-11T00:20:46.709Z,99.99
2019-02-11T00:23:15.422Z,99.63
2019-02-11T00:25:44.195Z,99.16
2019-02-11T00:28:12.925Z,98.61
2019-02-11T00:30:41.646Z,98.29
2019-02-11T00:33:10.544Z,97.90
2019-02-11T00:35:39.308Z,96.33
2019-02-11T00:38:08.034Z,95.70
2019-02-11T00:40:36.902Z,95.34
2019-02-11T00:43:05.628Z,95.62
2019-02-11T00:45:34.344Z,96.43
2019-02-11T00:48:04.335Z,97.11
2019-02-11T00:50:33.060Z,97.84
2019-02-11T00:53:01.786Z,98.65
2019-02-11T00:55:30.565Z,98.70
2019-02-11T00:57:59.293Z,98.50
2019-02-11T01:00:28.017Z,98.40
2019-02-11T01:02:57.025Z,98.35
2019-02-11T01:05:25.745Z,98.19
2019-02-11T01:07:54.475Z,96.28
2019-02-11T01:10:23.238Z,95.99
2019-02-11T01:12:51.968Z,96.39
2019-02-11T01:15:20.696Z,96.43
2019-02-11T01:17:49.888Z,96.82
2019-02-11T01:20:18.616Z,96.95
2019-02-11T01:22:47.340Z,97.46
2019-02-11T01:25:16.556Z,97.99
2019-02-11T01:27:45.292Z,98.14
2019-02-11T01:30:14.019Z,98.47
2019-02-11T01:32:43.227Z,98.82
2019-02-11T01:35:11.954Z,99.03
2019-02-11T01:37:40.729Z,99.27
2019-02-11T01:40:11.046Z,99.53
2019-02-11T01:42:39.780Z,100.00
2019-02-11T01:45:11.217Z,100.00
2019-02-11T01:47:40.349Z,100.00
2019-02-11T01:50:11.486Z,100.00
2019-02-11T01:52:40.214Z,100.00
2019-02-11T01:55:09.078Z,99.97
2019-02-11T01:57:37.846Z,98.71
2019-02-11T02:00:14.676Z,98.45
2019-02-11T02:02:43.402Z,98.82
2019-02-11T02:05:12.119Z,99.08
2019-02-11T02:07:40.994Z,99.19
2019-02-11T02:10:12.688Z,99.53
2019-02-11T02:12:41.409Z,99.56
2019-02-11T02:15:13.105Z,99.61
2019-02-11T02:17:41.828Z,99.53
2019-02-11T02:20:13.329Z,99.18
2019-02-11T02:22:42.324Z,98.98
2019-02-11T02:25:12.149Z,98.46
2019-02-11T02:27:41.572Z,97.67
2019-02-11T02:30:14.807Z,97.27
2019-02-11T02:32:43.515Z,97.54
2019-02-11T02:35:12.241Z,98.11
2019-02-11T02:37:41.123Z,98.72
2019-02-11T02:40:10.610Z,99.28
2019-02-11T02:42:39.340Z,99.41
2019-02-11T02:45:09.699Z,99.57
2019-02-11T02:47:38.438Z,99.57
2019-02-11T02:50:09.176Z,99.69
2019-02-11T02:52:38.053Z,99.75
2019-02-11T02:55:08.084Z,99.63
2019-02-11T02:57:36.808Z,99.45
2019-02-11T03:00:11.410Z,99.50
2019-02-11T03:02:40.145Z,99.56
2019-02-11T03:05:09.672Z,99.51
2019-02-11T03:07:38.977Z,99.29
2019-02-11T03:10:11.709Z,99.29
2019-02-11T03:12:40.432Z,99.30
2019-02-11T03:15:11.024Z,99.17
2019-02-11T03:17:39.749Z,99.40
2019-02-11T03:20:09.474Z,99.24
2019-02-11T03:22:38.345Z,99.52
2019-02-11T03:25:08.485Z,99.11
2019-02-11T03:27:37.194Z,97.68
2019-02-11T03:30:09.152Z,97.58
2019-02-11T03:32:37.883Z,96.54
2019-02-11T03:35:06.880Z,96.07
2019-02-11T03:37:35.844Z,95.85
2019-02-11T03:40:07.272Z,96.36
2019-02-11T03:42:35.993Z,96.42
2019-02-11T03:45:10.612Z,96.76
2019-02-11T03:47:39.329Z,96.44
2019-02-11T03:50:10.329Z,96.12
2019-02-11T03:52:39.293Z,95.83
2019-02-11T03:55:08.612Z,95.71
2019-02-11T03:57:37.343Z,96.10
2019-02-11T04:00:09.271Z,95.77
2019-02-11T04:02:37.996Z,95.66
2019-02-11T04:05:07.839Z,96.03
2019-02-11T04:07:37.014Z,96.74
2019-02-11T04:10:08.761Z,97.67
2019-02-11T04:12:37.480Z,98.04
2019-02-11T04:15:08.398Z,98.11
2019-02-11T04:17:37.124Z,98.28
2019-02-11T04:20:07.550Z,98.38
2019-02-11T04:22:36.325Z,98.69
2019-02-11T04:25:06.460Z,98.47
2019-02-11T04:27:35.350Z,98.45
2019-02-11T04:30:04.592Z,98.91
2019-02-11T04:32:33.330Z,99.28
2019-02-11T04:35:02.068Z,99.52
2019-02-11T04:37:31.184Z,99.37
2019-02-11T04:39:59.911Z,98.87
2019-02-11T04:42:28.635Z,98.78
2019-02-11T04:44:57.862Z,99.06
2019-02-11T04:47:26.585Z,99.17
2019-02-11T04:49:55.305Z,98.85
2019-02-11T04:52:24.082Z,98.74
2019-02-11T04:54:52.815Z,98.87
2019-02-11T04:57:21.555Z,99.10
2019-02-11T04:59:50.449Z,99.07
2019-02-11T05:02:19.170Z,98.61
2019-02-11T05:04:47.897Z,98.72
2019-02-11T05:07:16.693Z,98.95
2019-02-11T05:09:45.416Z,99.08
2019-02-11T05:12:14.186Z,98.75
2019-02-11T05:14:44.265Z,98.85
2019-02-11T05:17:13.183Z,99.04
2019-02-11T05:19:41.906Z,98.99
2019-02-11T05:22:10.793Z,98.47
2019-02-11T05:24:39.525Z,98.45
2019-02-11T05:27:08.267Z,98.69
2019-02-11T05:29:37.016Z,98.84
2019-02-11T05:32:05.752Z,98.99
2019-02-11T05:34:34.485Z,98.87
2019-02-11T05:37:03.265Z,98.91
2019-02-11T05:39:31.999Z,99.27
2019-02-11T05:42:00.724Z,98.83
2019-02-11T05:44:29.489Z,97.04
2019-02-11T05:46:58.269Z,96.79
2019-02-11T05:49:26.991Z,96.88
2019-02-11T05:52:01.614Z,95.52
2019-02-11T05:54:30.339Z,95.69
2019-02-11T05:56:59.067Z,96.69
2019-02-11T05:59:28.060Z,97.99
2019-02-11T06:01:56.772Z,97.00
2019-02-11T06:04:25.487Z,97.68
2019-02-11T06:06:54.291Z,98.07
2019-02-11T06:09:23.468Z,97.83
2019-02-11T06:11:52.186Z,96.82
2019-02-11T06:14:23.207Z,97.15
2019-02-11T06:16:51.618Z,97.69
2019-02-11T06:19:20.378Z,98.06
2019-02-11T06:21:49.247Z,98.32
2019-02-11T06:24:19.445Z,98.61
2019-02-11T06:26:48.180Z,98.35
2019-02-11T06:29:19.009Z,98.85
2019-02-11T06:31:47.529Z,97.92
2019-02-11T06:34:16.234Z,97.01
2019-02-11T06:36:45.009Z,95.59
2019-02-11T06:39:13.740Z,94.11
2019-02-11T06:41:42.459Z,93.73
2019-02-11T06:44:11.357Z,92.98
2019-02-11T06:46:40.080Z,93.37
2019-02-11T06:49:08.850Z,92.73
2019-02-11T06:51:37.754Z,91.99
2019-02-11T06:54:06.485Z,91.60
2019-02-11T06:56:35.210Z,90.96
2019-02-11T06:59:04.414Z,91.09
2019-02-11T07:01:33.139Z,90.15
2019-02-11T07:04:01.852Z,89.62
2019-02-11T07:06:30.664Z,88.61
2019-02-11T07:08:59.390Z,89.12
2019-02-11T07:11:28.120Z,89.42
2019-02-11T07:13:56.975Z,90.71
2019-02-11T07:16:25.701Z,91.50
2019-02-11T07:18:54.422Z,92.26
2019-02-11T07:21:23.193Z,92.90
2019-02-11T07:23:51.924Z,90.91
2019-02-11T07:26:20.637Z,90.85
2019-02-11T07:28:49.965Z,90.95
2019-02-11T07:31:18.698Z,89.65
2019-02-11T07:33:47.417Z,87.69
2019-02-11T07:36:17.989Z,85.14
2019-02-11T07:38:46.843Z,84.15
2019-02-11T07:41:15.561Z,82.77
2019-02-11T07:43:48.670Z,83.19
2019-02-11T07:46:18.950Z,82.92
2019-02-11T07:48:47.675Z,82.62
2019-02-11T07:51:16.688Z,82.76
2019-02-11T07:53:45.411Z,79.62
2019-02-11T07:56:14.129Z,81.50
2019-02-11T07:58:42.920Z,77.93
2019-02-11T08:01:11.653Z,75.34
2019-02-11T08:03:40.373Z,73.90
2019-02-11T08:06:09.261Z,75.16
2019-02-11T08:08:37.952Z,75.52
2019-02-11T08:11:06.682Z,78.48
2019-02-11T08:13:35.645Z,75.93
2019-02-11T08:16:04.469Z,76.41
2019-02-11T08:18:33.191Z,78.95
2019-02-11T08:21:01.958Z,81.39
2019-02-11T08:23:30.680Z,83.83
2019-02-11T08:25:59.406Z,83.52
2019-02-11T08:28:28.656Z,84.76
2019-02-11T08:30:57.396Z,83.00
2019-02-11T08:33:26.224Z,83.61
2019-02-11T08:35:55.007Z,81.66
2019-02-11T08:38:23.730Z,80.86
2019-02-11T08:40:52.456Z,81.18
2019-02-11T08:43:21.332Z,80.84
2019-02-11T08:45:50.050Z,81.05
2019-02-11T08:48:18.767Z,78.45
2019-02-11T08:50:47.583Z,78.70
2019-02-11T08:53:16.320Z,78.89
2019-02-11T08:55:45.046Z,79.22
2019-02-11T08:58:13.903Z,79.70
2019-02-11T09:00:42.703Z,80.45
2019-02-11T09:03:12.422Z,78.27
2019-02-11T09:05:41.279Z,79.12
2019-02-11T09:08:10.412Z,80.18
2019-02-11T09:10:39.141Z,80.05
2019-02-11T09:13:08.003Z,80.91
2019-02-11T09:15:36.726Z,80.29
2019-02-11T09:18:05.570Z,80.74
2019-02-11T09:20:34.361Z,80.03
2019-02-11T09:23:03.071Z,81.61
2019-02-11T09:25:31.798Z,80.82
2019-02-11T09:28:00.558Z,80.27
2019-02-11T09:30:29.278Z,81.42
2019-02-11T09:32:57.995Z,80.88
2019-02-11T09:35:26.763Z,81.27
2019-02-11T09:37:55.484Z,80.54
2019-02-11T09:40:24.218Z,80.22
2019-02-11T09:42:53.437Z,79.85
2019-02-11T09:45:24.841Z,79.61
2019-02-11T09:47:53.570Z,80.87
2019-02-11T09:50:25.871Z,83.58
2019-02-11T09:52:54.601Z,84.81
2019-02-11T09:55:29.192Z,83.16
2019-02-11T09:57:58.053Z,82.72
2019-02-11T10:00:27.492Z,81.08
2019-02-11T10:02:56.213Z,81.73
2019-02-11T10:05:25.095Z,82.83
2019-02-11T10:07:53.820Z,80.57
2019-02-11T10:10:22.553Z,79.10
2019-02-11T10:12:51.442Z,78.78
2019-02-11T10:15:20.177Z,80.43
2019-02-11T10:17:48.986Z,80.93
2019-02-11T10:20:17.812Z,78.95
2019-02-11T10:22:46.537Z,81.41
2019-02-11T10:25:24.079Z,80.60
2019-02-11T10:27:54.490Z,79.40
2019-02-11T10:30:23.214Z,81.24
2019-02-11T10:32:52.097Z,79.63
2019-02-11T10:35:21.020Z,80.66
2019-02-11T10:37:49.844Z,82.17
2019-02-11T10:40:18.719Z,80.82
2019-02-11T10:42:47.454Z,81.60
2019-02-11T10:45:16.262Z,81.92
2019-02-11T10:47:49.140Z,82.85
2019-02-11T10:50:18.870Z,83.24
2019-02-11T10:52:47.805Z,83.58
2019-02-11T10:55:18.657Z,84.21
2019-02-11T10:57:47.440Z,83.32
2019-02-11T11:00:19.310Z,80.54
2019-02-11T11:02:48.416Z,82.04
2019-02-11T11:05:17.227Z,81.06
2019-02-11T11:07:46.162Z,77.98
2019-02-11T11:10:26.725Z,77.99
2019-02-11T11:12:55.575Z,73.45
2019-02-11T11:15:24.501Z,72.01
2019-02-11T11:17:53.647Z,72.76
2019-02-11T11:20:22.368Z,68.10
2019-02-11T11:22:51.131Z,71.90
2019-02-11T11:25:20.127Z,70.55
2019-02-11T11:27:48.863Z,64.05
2019-02-11T11:30:21.294Z,63.23
2019-02-11T11:32:50.102Z,63.00
2019-02-11T11:35:19.126Z,66.06
2019-02-11T11:37:47.849Z,62.39
2019-02-11T11:40:21.639Z,61.50
2019-02-11T11:42:50.382Z,59.06
2019-02-11T11:45:20.513Z,61.51
2019-02-11T11:47:49.404Z,56.91
2019-02-11T11:50:18.631Z,56.88
2019-02-11T11:52:47.471Z,61.37
2019-02-11T11:55:21.617Z,60.16
2019-02-11T11:57:53.362Z,60.68
2019-02-11T12:00:24.837Z,61.01
2019-02-11T12:03:01.526Z,58.07
2019-02-11T12:05:24.294Z,59.29
2019-02-11T12:07:53.060Z,58.90
2019-02-11T12:10:21.929Z,58.95
2019-02-11T12:12:50.655Z,59.68
2019-02-11T12:15:22.352Z,57.83
2019-02-11T12:17:51.537Z,58.27
2019-02-11T12:20:21.812Z,61.59
2019-02-11T12:22:50.555Z,60.85
2019-02-11T12:25:19.780Z,62.41
2019-02-11T12:27:48.504Z,64.50
2019-02-11T12:30:25.500Z,65.23
2019-02-11T12:32:55.744Z,65.65
2019-02-11T12:35:24.839Z,66.39
2019-02-11T12:37:53.931Z,67.65
2019-02-11T12:40:22.668Z,66.26
2019-02-11T12:42:53.101Z,67.27
2019-02-11T12:45:24.834Z,65.78
2019-02-11T12:47:53.590Z,69.32
2019-02-11T12:50:22.333Z,65.49
2019-02-11T12:52:51.961Z,65.33
2019-02-11T12:55:20.705Z,67.08
2019-02-11T12:57:49.431Z,66.99
2019-02-11T13:00:24.803Z,68.36
2019-02-11T13:02:53.619Z,67.54
2019-02-11T13:05:32.292Z,66.47
2019-02-11T13:07:53.066Z,66.13
2019-02-11T13:10:21.782Z,66.28
2019-02-11T13:12:50.526Z,67.18
2019-02-11T13:15:53.096Z,68.00
2019-02-11T13:17:50.939Z,69.54
2019-02-11T13:20:20.061Z,67.88
2019-02-11T13:22:49.005Z,67.66
2019-02-11T13:25:18.850Z,67.22
2019-02-11T13:27:47.866Z,68.65
2019-02-11T13:30:18.522Z,69.41
2019-02-11T13:32:47.371Z,72.14
2019-02-11T13:35:16.248Z,73.25
2019-02-11T13:37:45.570Z,73.84
2019-02-11T13:40:14.810Z,73.36
2019-02-11T13:42:43.808Z,74.39
2019-02-11T13:45:14.721Z,75.70
2019-02-11T13:47:53.132Z,76.94
2019-02-11T13:50:16.244Z,78.24
2019-02-11T13:52:45.111Z,79.08
2019-02-11T13:55:13.949Z,81.01
2019-02-11T13:57:42.673Z,81.33
2019-02-11T14:00:21.427Z,82.01
2019-02-11T14:02:52.547Z,83.33
2019-02-11T14:05:21.836Z,82.79
2019-02-11T14:07:50.623Z,82.97
2019-02-11T14:10:19.428Z,83.69
2019-02-11T14:12:48.750Z,83.54
2019-02-11T14:15:20.289Z,84.11
2019-02-11T14:17:48.079Z,84.35
2019-02-11T14:20:25.757Z,85.00
2019-02-11T14:22:54.469Z,84.00
2019-02-11T14:25:40.521Z,82.51
2019-02-11T14:27:53.825Z,82.50
2019-02-11T14:30:23.068Z,81.59
2019-02-11T14:32:51.834Z,81.68
2019-02-11T14:35:21.305Z,81.80
2019-02-11T14:37:50.178Z,82.25
2019-02-11T14:40:19.108Z,82.72
2019-02-11T14:42:47.881Z,82.84
2019-02-11T14:45:20.429Z,83.18
2019-02-11T14:47:49.155Z,83.06
2019-02-11T14:50:18.058Z,83.30
2019-02-11T14:52:46.739Z,83.59
2019-02-11T14:55:15.460Z,82.49
2019-02-11T14:57:44.230Z,81.77
2019-02-11T15:00:21.564Z,81.22
2019-02-11T15:02:50.625Z,81.16
2019-02-11T15:05:19.752Z,81.44
2019-02-11T15:07:48.602Z,82.08
2019-02-11T15:10:19.588Z,82.20
2019-02-11T15:12:48.244Z,82.39
2019-02-11T15:15:16.978Z,82.32
2019-02-11T15:17:46.912Z,82.71
2019-02-11T15:20:16.633Z,83.20
2019-02-11T15:22:47.025Z,83.48
2019-02-11T15:25:18.171Z,83.11
2019-02-11T15:27:46.896Z,83.03
2019-02-11T15:30:17.521Z,84.25
2019-02-11T15:32:46.820Z,85.18
2019-02-11T15:35:15.571Z,86.02
2019-02-11T15:37:44.376Z,86.17
2019-02-11T15:40:21.747Z,86.42
2019-02-11T15:42:50.474Z,86.52
2019-02-11T15:45:19.196Z,86.66
2019-02-11T15:47:47.994Z,87.19
2019-02-11T15:50:18.020Z,87.27
2019-02-11T15:52:46.840Z,87.58
2019-02-11T15:55:21.109Z,88.00
2019-02-11T15:57:49.838Z,88.77
2019-02-11T16:00:23.293Z,89.03
2019-02-11T16:02:52.337Z,89.27
2019-02-11T16:05:21.199Z,89.47
2019-02-11T16:07:49.932Z,89.63
2019-02-11T16:10:22.420Z,89.56
2019-02-11T16:12:51.236Z,89.61
2019-02-11T16:15:19.950Z,89.41
2019-02-11T16:17:49.180Z,89.22
2019-02-11T16:20:17.901Z,89.87
2019-02-11T16:22:46.630Z,90.62
2019-02-11T16:25:16.094Z,90.77
2019-02-11T16:27:44.823Z,91.25
2019-02-11T16:30:16.493Z,91.66
2019-02-11T16:32:45.701Z,91.53
2019-02-11T16:35:16.326Z,91.51
2019-02-11T16:37:45.058Z,91.70
2019-02-11T16:40:28.314Z,91.31
2019-02-11T16:42:57.044Z,90.86
2019-02-11T16:45:25.765Z,89.88
2019-02-11T16:47:54.808Z,90.10
2019-02-11T16:50:23.539Z,89.96
2019-02-11T16:52:52.268Z,90.70
2019-02-11T16:55:21.066Z,90.67
2019-02-11T16:57:49.793Z,90.76
2019-02-11T17:00:21.755Z,91.10
2019-02-11T17:02:50.540Z,91.34
2019-02-11T17:05:19.290Z,91.32
2019-02-11T17:07:48.142Z,90.65
2019-02-11T17:10:17.167Z,90.26
2019-02-11T17:12:45.916Z,90.71
2019-02-11T17:15:19.036Z,91.83
2019-02-11T17:17:48.147Z,91.45
2019-02-11T17:20:17.487Z,91.55
2019-02-11T17:22:46.223Z,91.88
2019-02-11T17:25:15.833Z,91.60
2019-02-11T17:27:44.568Z,91.05
2019-02-11T17:30:15.906Z,90.84
2019-02-11T17:32:44.703Z,91.27
2019-02-11T17:35:13.543Z,91.62
2019-02-11T17:37:42.292Z,91.03
2019-02-11T17:40:13.589Z,91.31
2019-02-11T17:42:42.320Z,91.44
2019-02-11T17:45:16.574Z,91.39
2019-02-11T17:47:45.571Z,91.44
2019-02-11T17:50:14.510Z,91.63
2019-02-11T17:52:43.281Z,91.65
2019-02-11T17:55:14.235Z,91.45
2019-02-11T17:57:42.966Z,91.62
2019-02-11T18:00:25.357Z,91.74
2019-02-11T18:02:54.189Z,91.90
2019-02-11T18:05:22.918Z,91.71
2019-02-11T18:07:51.813Z,91.66
2019-02-11T18:10:20.569Z,91.95
2019-02-11T18:12:49.295Z,92.37
2019-02-11T18:15:18.114Z,92.90
2019-02-11T18:17:46.927Z,93.28
2019-02-11T18:20:15.660Z,93.32
2019-02-11T18:22:44.539Z,93.10
2019-02-11T18:25:13.473Z,93.11
2019-02-11T18:27:42.209Z,93.66
2019-02-11T18:30:15.941Z,93.57
2019-02-11T18:32:44.770Z,93.72
2019-02-11T18:35:18.290Z,93.73
2019-02-11T18:37:47.096Z,93.08
2019-02-11T18:40:16.331Z,92.78
2019-02-11T18:42:45.090Z,92.35
2019-02-11T18:45:18.627Z,92.53
2019-02-11T18:47:47.358Z,92.37
2019-02-11T18:50:16.607Z,92.34
2019-02-11T18:52:45.479Z,92.49
2019-02-11T18:55:19.060Z,92.44
2019-02-11T18:57:47.791Z,92.06
2019-02-11T19:00:19.921Z,91.96
2019-02-11T19:02:49.335Z,91.80
2019-02-11T19:05:18.489Z,92.06
2019-02-11T19:07:47.400Z,92.15
2019-02-11T19:10:17.639Z,91.88
2019-02-11T19:12:46.518Z,91.16
2019-02-11T19:15:19.080Z,90.91
2019-02-11T19:17:47.968Z,89.75
2019-02-11T19:20:17.708Z,89.61
2019-02-11T19:22:46.995Z,89.68
2019-02-11T19:25:16.008Z,89.33
2019-02-11T19:27:44.760Z,89.89
2019-02-11T19:30:20.937Z,90.52
2019-02-11T19:32:49.567Z,90.92
2019-02-11T19:35:18.404Z,90.98
2019-02-11T19:37:47.185Z,90.46
2019-02-11T19:40:17.815Z,90.78
2019-02-11T19:42:46.549Z,91.25
2019-02-11T19:45:18.219Z,91.77
2019-02-11T19:47:47.004Z,91.98
2019-02-11T19:50:17.227Z,92.29
2019-02-11T19:52:46.006Z,92.09
2019-02-11T19:55:20.382Z,91.87
2019-02-11T19:57:49.120Z,91.95
2019-02-11T20:00:22.112Z,91.79
2019-02-11T20:02:51.458Z,90.94
2019-02-11T20:05:20.196Z,90.40
2019-02-11T20:07:49.088Z,90.53
2019-02-11T20:10:20.296Z,90.83
2019-02-11T20:12:49.021Z,90.32
2019-02-11T20:15:20.146Z,90.19
2019-02-11T20:17:48.888Z,89.92
2019-02-11T20:20:19.918Z,89.37
2019-02-11T20:22:48.799Z,90.84
2019-02-11T20:25:17.525Z,92.31
2019-02-11T20:27:46.359Z,92.87
2019-02-11T20:30:24.414Z,93.47
2019-02-11T20:32:53.162Z,93.72
2019-02-11T20:35:21.885Z,93.27
2019-02-11T20:37:50.679Z,93.25
2019-02-11T20:40:27.625Z,94.29
2019-02-11T20:42:56.509Z,94.39
2019-02-11T20:45:29.657Z,93.79
2019-02-11T20:47:58.395Z,93.78
2019-02-11T20:50:27.496Z,94.03
2019-02-11T20:52:56.253Z,94.60
2019-02-11T20:55:24.965Z,94.38
2019-02-11T20:57:56.248Z,94.77
2019-02-11T21:00:26.291Z,94.94
2019-02-11T21:02:55.019Z,94.21
2019-02-11T21:05:24.425Z,94.02
2019-02-11T21:07:53.158Z,93.83
2019-02-11T21:10:24.345Z,93.58
2019-02-11T21:12:53.112Z,93.93
2019-02-11T21:15:21.857Z,93.75
2019-02-11T21:17:50.578Z,93.75
2019-02-11T21:20:37.782Z,93.96
2019-02-11T21:23:08.238Z,93.38
2019-02-11T21:25:37.155Z,93.17
2019-02-11T21:28:06.140Z,93.99
2019-02-11T21:30:34.884Z,93.40
2019-02-11T21:33:06.447Z,93.53
2019-02-11T21:35:35.252Z,93.43
2019-02-11T21:38:03.995Z,94.10
2019-02-11T21:40:32.725Z,94.71
2019-02-11T21:43:02.241Z,94.88
2019-02-11T21:45:32.431Z,94.67
2019-02-11T21:48:04.321Z,94.40
2019-02-11T21:50:33.098Z,94.32
2019-02-11T21:53:01.872Z,93.92
2019-02-11T21:55:30.601Z,94.13
2019-02-11T21:57:59.501Z,94.27
2019-02-11T22:00:28.226Z,94.07
2019-02-11T22:03:01.209Z,93.51
2019-02-11T22:05:29.994Z,92.45
2019-02-11T22:07:58.720Z,91.73
2019-02-11T22:10:27.447Z,92.86
2019-02-11T22:12:57.437Z,92.99
2019-02-11T22:15:26.124Z,93.45
2019-02-11T22:17:54.854Z,94.53
2019-02-11T22:20:24.072Z,95.05
2019-02-11T22:22:52.805Z,95.76
2019-02-11T22:25:21.683Z,95.87
2019-02-11T22:27:50.556Z,94.87
2019-02-11T22:30:24.217Z,94.93
2019-02-11T22:32:52.947Z,95.55
2019-02-11T22:35:22.149Z,95.15
2019-02-11T22:37:52.058Z,96.09
2019-02-11T22:40:20.790Z,96.50
2019-02-11T22:42:49.558Z,97.35
2019-02-11T22:45:21.155Z,98.10
2019-02-11T22:47:49.878Z,98.70
2019-02-11T22:50:18.767Z,98.99
2019-02-11T22:52:47.489Z,98.94
2019-02-11T22:55:16.716Z,97.01
2019-02-11T22:57:45.962Z,96.75
2019-02-11T23:00:49.215Z,97.39
2019-02-11T23:03:18.286Z,97.72
2019-02-11T23:05:47.007Z,98.52
2019-02-11T23:08:15.745Z,99.30
2019-02-11T23:10:44.740Z,99.27
2019-02-11T23:13:13.563Z,99.34
2019-02-11T23:15:42.290Z,98.84
2019-02-11T23:18:11.070Z,98.09
2019-02-11T23:20:39.796Z,97.15
2019-02-11T23:23:08.523Z,95.58
2019-02-11T23:25:37.288Z,95.62
2019-02-11T23:28:06.049Z,94.71
2019-02-11T23:30:34.771Z,94.22
2019-02-11T23:33:03.579Z,94.22
2019-02-11T23:35:32.310Z,94.71
2019-02-11T23:38:01.037Z,94.97
2019-02-11T23:40:30.268Z,93.79
2019-02-11T23:42:59.946Z,93.75
2019-02-11T23:45:28.808Z,93.67
2019-02-11T23:47:57.686Z,93.54
2019-02-11T23:50:26.418Z,93.60
2019-02-11T23:52:55.136Z,93.42
2019-02-11T23:55:24.009Z,92.93
2019-02-11T23:57:52.740Z,93.24
